createdAt,value
2023-02-27T00:02:02.389Z,5.20
2023-02-27T00:04:33.303Z,5.00
2023-02-27T00:07:08.762Z,5.10
2023-02-27T00:09:36.752Z,5.20
2023-02-27T00:12:06.120Z,4.90
2023-02-27T00:14:36.832Z,4.70
2023-02-27T00:17:04.757Z,4.70
2023-02-27T00:19:32.650Z,4.70
2023-02-27T00:22:02.644Z,4.50
2023-02-27T00:24:33.261Z,4.50
2023-02-27T00:27:01.171Z,4.60
2023-02-27T00:29:32.821Z,4.90
2023-02-27T00:32:00.843Z,4.80
2023-02-27T00:34:28.752Z,4.60
2023-02-27T00:36:56.623Z,4.70
2023-02-27T00:39:24.500Z,5.10
2023-02-27T00:41:52.360Z,5.30
2023-02-27T00:44:20.260Z,5.20
2023-02-27T00:46:49.494Z,4.90
2023-02-27T00:49:17.594Z,5.00
2023-02-27T00:51:45.425Z,5.00
2023-02-27T00:54:18.923Z,4.70
2023-02-27T00:56:52.794Z,4.40
2023-02-27T00:59:20.847Z,4.40
2023-02-27T01:01:56.059Z,4.50
2023-02-27T01:04:26.014Z,4.40
2023-02-27T01:06:53.918Z,4.20
2023-02-27T01:09:21.914Z,4.30
2023-02-27T01:11:49.808Z,4.50
2023-02-27T01:14:23.565Z,4.40
2023-02-27T01:16:59.027Z,4.30
2023-02-27T01:19:29.576Z,4.40
2023-02-27T01:21:57.500Z,4.60
2023-02-27T01:24:26.567Z,4.40
2023-02-27T01:26:57.485Z,4.40
2023-02-27T01:29:25.495Z,5.00
2023-02-27T01:31:55.880Z,5.70
2023-02-27T01:34:28.044Z,6.00
2023-02-27T01:36:59.001Z,6.50
2023-02-27T01:39:32.835Z,7.10
2023-02-27T01:42:04.037Z,7.30
2023-02-27T01:44:32.722Z,7.50
2023-02-27T01:47:00.620Z,7.50
2023-02-27T01:49:44.546Z,7.80
2023-02-27T01:52:15.242Z,7.60
2023-02-27T01:54:43.725Z,7.20
2023-02-27T01:57:17.617Z,7.20
2023-02-27T01:59:48.445Z,7.50
2023-02-27T02:02:22.401Z,6.90
2023-02-27T02:04:56.257Z,6.40
2023-02-27T02:07:25.356Z,6.50
2023-02-27T02:09:56.277Z,6.80
2023-02-27T02:12:28.899Z,6.50
2023-02-27T02:14:56.763Z,6.30
2023-02-27T02:17:40.092Z,6.50
2023-02-27T02:20:38.524Z,6.80
2023-02-27T02:23:48.622Z,6.50
2023-02-27T02:26:45.017Z,6.40
2023-02-27T02:30:04.233Z,6.90
2023-02-27T02:33:11.502Z,6.90
2023-02-27T02:36:27.364Z,6.50
2023-02-27T02:39:28.619Z,6.80
2023-02-27T02:42:05.572Z,6.80
2023-02-27T02:44:53.248Z,6.40
2023-02-27T02:47:31.753Z,6.60
2023-02-27T02:50:08.504Z,6.90
2023-02-27T02:52:51.441Z,6.30
2023-02-27T02:55:36.263Z,5.90
2023-02-27T02:58:13.098Z,6.10
2023-02-27T03:00:46.911Z,6.10
2023-02-27T03:03:21.195Z,5.60
2023-02-27T03:05:57.450Z,5.80
2023-02-27T03:08:30.310Z,6.20
2023-02-27T03:11:00.596Z,5.80
2023-02-27T03:13:35.678Z,5.40
2023-02-27T03:16:10.123Z,5.50
2023-02-27T03:18:53.971Z,5.60
2023-02-27T03:21:30.561Z,5.20
2023-02-27T03:24:02.436Z,5.00
2023-02-27T03:26:37.433Z,5.10
2023-02-27T03:29:11.346Z,4.90
2023-02-27T03:31:43.475Z,4.60
2023-02-27T03:34:16.903Z,4.50
2023-02-27T03:36:53.953Z,5.00
2023-02-27T03:39:49.932Z,5.00
2023-02-27T03:42:38.697Z,4.90
2023-02-27T03:45:26.992Z,5.40
2023-02-27T03:47:54.988Z,5.70
2023-02-27T03:50:23.105Z,5.50
2023-02-27T03:52:54.077Z,5.20
2023-02-27T03:55:26.021Z,5.30
2023-02-27T03:58:01.916Z,5.30
2023-02-27T04:00:31.230Z,4.90
2023-02-27T04:03:06.494Z,4.90
2023-02-27T04:05:40.238Z,5.20
2023-02-27T04:08:31.724Z,5.30
2023-02-27T04:11:18.425Z,5.10
2023-02-27T04:14:10.480Z,5.80
2023-02-27T04:16:59.692Z,6.00
2023-02-27T04:19:54.500Z,5.70
2023-02-27T04:22:33.899Z,5.80
2023-02-27T04:25:24.875Z,6.20
2023-02-27T04:28:02.268Z,6.00
2023-02-27T04:30:42.753Z,6.10
2023-02-27T04:33:30.263Z,6.60
2023-02-27T04:36:07.954Z,7.00
2023-02-27T04:38:52.585Z,6.90
2023-02-27T04:41:33.571Z,7.20
2023-02-27T04:44:03.056Z,7.40
2023-02-27T04:46:40.145Z,6.90
2023-02-27T04:49:22.772Z,6.60
2023-02-27T04:51:56.608Z,6.50
2023-02-27T04:54:29.027Z,6.40
2023-02-27T04:57:03.822Z,6.00
2023-02-27T04:59:40.655Z,5.80
2023-02-27T05:02:19.754Z,5.90
2023-02-27T05:04:50.595Z,5.60
2023-02-27T05:07:24.310Z,5.10
2023-02-27T05:09:57.296Z,5.10
2023-02-27T05:12:35.649Z,5.30
2023-02-27T05:15:09.939Z,4.90
2023-02-27T05:17:41.982Z,4.70
2023-02-27T05:20:12.997Z,4.70
2023-02-27T05:23:07.129Z,4.80
2023-02-27T05:25:47.105Z,4.80
2023-02-27T05:28:20.742Z,4.70
2023-02-27T05:31:00.183Z,5.00
2023-02-27T05:33:40.602Z,5.40
2023-02-27T05:36:24.188Z,5.50
2023-02-27T05:38:58.071Z,5.90
2023-02-27T05:41:30.484Z,5.90
2023-02-27T05:44:09.724Z,5.50
2023-02-27T05:46:42.601Z,5.80
2023-02-27T05:49:17.880Z,6.20
2023-02-27T05:51:53.130Z,6.50
2023-02-27T05:54:30.933Z,6.60
2023-02-27T05:57:12.737Z,7.10
2023-02-27T05:59:46.802Z,7.30
2023-02-27T06:02:15.037Z,7.20
2023-02-27T06:04:46.493Z,7.40
2023-02-27T06:07:18.719Z,7.40
2023-02-27T06:09:54.084Z,7.10
2023-02-27T06:12:24.020Z,6.90
2023-02-27T06:14:52.203Z,7.00
2023-02-27T06:17:22.936Z,6.90
2023-02-27T06:19:50.800Z,6.80
2023-02-27T06:22:20.046Z,6.80
2023-02-27T06:24:47.851Z,6.70
2023-02-27T06:27:18.479Z,6.30
2023-02-27T06:29:46.301Z,6.80
2023-02-27T06:32:14.107Z,7.20
2023-02-27T06:34:41.949Z,7.00
2023-02-27T06:37:17.400Z,6.80
2023-02-27T06:39:47.941Z,7.00
2023-02-27T06:42:15.910Z,7.40
2023-02-27T06:44:48.992Z,7.20
2023-02-27T06:47:22.709Z,7.00
2023-02-27T06:50:03.615Z,7.30
2023-02-27T06:52:34.725Z,7.50
2023-02-27T06:55:11.151Z,7.00
2023-02-27T06:57:39.114Z,6.80
2023-02-27T07:00:08.274Z,6.90
2023-02-27T07:02:36.147Z,6.90
2023-02-27T07:05:08.081Z,7.70
2023-02-27T07:07:38.642Z,8.20
2023-02-27T07:10:12.157Z,7.70
2023-02-27T07:12:43.388Z,7.40
2023-02-27T07:15:17.071Z,7.10
2023-02-27T07:17:44.970Z,6.60
2023-02-27T07:20:15.778Z,6.60
2023-02-27T07:22:43.837Z,6.40
2023-02-27T07:25:13.046Z,5.90
2023-02-27T07:27:44.324Z,5.60
2023-02-27T07:30:13.609Z,5.30
2023-02-27T07:32:41.477Z,5.00
2023-02-27T07:35:10.356Z,4.50
2023-02-27T07:37:38.416Z,4.50
2023-02-27T07:40:07.552Z,3.90
2023-02-27T07:42:39.416Z,4.10
2023-02-27T07:45:11.018Z,4.00
2023-02-27T07:47:38.846Z,3.60
2023-02-27T07:50:07.352Z,3.30
2023-02-27T07:52:38.418Z,3.30
2023-02-27T07:55:06.850Z,3.30
2023-02-27T07:57:39.231Z,3.00
2023-02-27T08:00:11.180Z,2.80
2023-02-27T08:02:39.341Z,2.60
2023-02-27T08:05:07.984Z,2.50
2023-02-27T08:07:36.555Z,2.30
2023-02-27T08:10:05.201Z,2.40
2023-02-27T08:12:35.954Z,2.40
2023-02-27T08:15:06.311Z,2.50
2023-02-27T08:17:34.151Z,3.20
2023-02-27T08:20:02.098Z,3.80
2023-02-27T08:22:29.973Z,3.80
2023-02-27T08:24:57.839Z,3.60
2023-02-27T08:27:25.747Z,3.50
2023-02-27T08:29:53.697Z,3.40
2023-02-27T08:32:23.220Z,3.00
2023-02-27T08:34:51.788Z,2.70
2023-02-27T08:37:19.843Z,2.50
2023-02-27T08:39:52.347Z,2.30
2023-02-27T08:42:26.929Z,2.20
2023-02-27T08:44:56.891Z,2.30
2023-02-27T08:47:26.296Z,2.40
2023-02-27T08:49:54.145Z,2.40
2023-02-27T08:52:24.864Z,2.40
2023-02-27T08:54:55.036Z,3.00
2023-02-27T08:57:23.033Z,3.00
2023-02-27T08:59:53.146Z,3.10
2023-02-27T09:02:23.625Z,3.10
2023-02-27T09:04:52.934Z,3.10
2023-02-27T09:07:21.375Z,3.00
2023-02-27T09:09:50.129Z,2.90
2023-02-27T09:12:21.176Z,3.00
2023-02-27T09:14:49.453Z,3.10
2023-02-27T09:17:17.312Z,3.10
2023-02-27T09:19:45.254Z,3.20
2023-02-27T09:22:20.826Z,3.20
2023-02-27T09:24:51.734Z,3.40
2023-02-27T09:27:21.606Z,3.50
2023-02-27T09:29:55.327Z,3.40
2023-02-27T09:32:23.477Z,3.40
2023-02-27T09:34:54.407Z,3.40
2023-02-27T09:37:26.404Z,3.40
2023-02-27T09:40:00.539Z,3.40
2023-02-27T09:42:45.427Z,3.40
2023-02-27T09:45:24.129Z,3.40
2023-02-27T09:47:56.030Z,3.70
2023-02-27T09:50:37.122Z,3.90
2023-02-27T09:53:11.834Z,3.90
2023-02-27T09:55:44.551Z,3.90
2023-02-27T09:58:41.531Z,4.00
2023-02-27T10:01:15.872Z,4.10
2023-02-27T10:04:14.408Z,4.20
2023-02-27T10:06:49.358Z,4.40
2023-02-27T10:09:41.320Z,4.30
2023-02-27T10:12:32.210Z,4.20
2023-02-27T10:15:05.855Z,4.00
2023-02-27T10:17:39.462Z,4.30
2023-02-27T10:20:11.151Z,4.50
2023-02-27T10:22:44.173Z,4.50
2023-02-27T10:25:30.666Z,4.50
2023-02-27T10:28:09.739Z,4.40
2023-02-27T10:30:37.855Z,4.30
2023-02-27T10:33:23.648Z,4.50
2023-02-27T10:35:57.761Z,4.40
2023-02-27T10:38:33.016Z,4.30
2023-02-27T10:41:03.327Z,4.40
2023-02-27T10:43:31.221Z,4.30
2023-02-27T10:46:03.250Z,4.40
2023-02-27T10:48:33.431Z,4.30
2023-02-27T10:51:21.182Z,4.30
2023-02-27T10:53:49.083Z,4.10
2023-02-27T10:56:25.089Z,4.20
2023-02-27T10:59:07.713Z,4.20
2023-02-27T11:01:53.396Z,4.20
2023-02-27T11:04:34.351Z,4.30
2023-02-27T11:07:04.922Z,4.50
2023-02-27T11:09:34.401Z,4.60
2023-02-27T11:12:19.902Z,4.60
2023-02-27T11:14:53.095Z,4.90
2023-02-27T11:17:32.233Z,4.90
2023-02-27T11:20:06.464Z,4.90
2023-02-27T11:22:34.628Z,4.90
2023-02-27T11:25:22.272Z,5.10
2023-02-27T11:28:20.606Z,5.00
2023-02-27T11:31:05.954Z,5.00
2023-02-27T11:33:40.206Z,4.90
2023-02-27T11:36:09.316Z,5.00
2023-02-27T11:38:37.202Z,5.00
2023-02-27T11:41:10.497Z,5.00
2023-02-27T11:43:47.896Z,5.00
2023-02-27T11:46:46.427Z,4.80
2023-02-27T11:49:24.112Z,4.80
2023-02-27T11:52:00.512Z,4.90
2023-02-27T11:54:37.965Z,5.20
2023-02-27T11:57:26.102Z,5.50
2023-02-27T12:00:16.255Z,5.50
2023-02-27T12:02:51.276Z,5.40
2023-02-27T12:05:21.709Z,5.40
2023-02-27T12:07:55.943Z,5.40
2023-02-27T12:10:27.288Z,5.40
2023-02-27T12:12:59.964Z,5.40
2023-02-27T12:15:35.317Z,5.20
2023-02-27T12:18:24.295Z,5.30
2023-02-27T12:20:58.458Z,5.20
2023-02-27T12:23:32.870Z,5.20
2023-02-27T12:26:08.960Z,5.30
2023-02-27T12:29:07.268Z,5.20
2023-02-27T12:31:46.982Z,5.30
2023-02-27T12:34:37.500Z,5.40
2023-02-27T12:37:10.597Z,5.40
2023-02-27T12:39:40.267Z,5.30
2023-02-27T12:42:56.248Z,5.30
2023-02-27T12:45:54.332Z,5.30
2023-02-27T12:48:47.525Z,5.30
2023-02-27T12:51:37.018Z,5.30
2023-02-27T12:54:34.038Z,5.40
2023-02-27T12:57:25.636Z,5.50
2023-02-27T13:00:12.433Z,5.60
2023-02-27T13:03:02.050Z,5.40
2023-02-27T13:05:45.503Z,5.30
2023-02-27T13:08:57.675Z,5.30
2023-02-27T13:11:53.845Z,5.40
2023-02-27T13:14:32.262Z,5.40
2023-02-27T13:17:19.590Z,5.70
2023-02-27T13:20:01.368Z,5.70
2023-02-27T13:22:38.250Z,5.70
2023-02-27T13:25:15.375Z,5.80
2023-02-27T13:27:46.671Z,5.80
2023-02-27T13:30:24.955Z,5.80
2023-02-27T13:33:17.231Z,5.80
2023-02-27T13:35:55.980Z,5.70
2023-02-27T13:38:45.399Z,5.80
2023-02-27T13:41:38.084Z,5.70
2023-02-27T13:44:49.323Z,5.90
2023-02-27T13:47:40.331Z,6.00
2023-02-27T13:50:45.438Z,5.80
2023-02-27T13:53:25.866Z,5.70
2023-02-27T13:56:01.077Z,5.70
2023-02-27T13:58:29.014Z,5.90
2023-02-27T14:01:00.958Z,5.90
2023-02-27T14:03:33.351Z,5.90
2023-02-27T14:06:13.018Z,5.80
2023-02-27T14:08:50.196Z,5.80
2023-02-27T14:11:29.658Z,5.90
2023-02-27T14:14:44.273Z,5.90
2023-02-27T14:17:13.560Z,5.80
2023-02-27T14:19:57.102Z,5.70
2023-02-27T14:23:08.119Z,5.80
2023-02-27T14:25:39.842Z,5.90
2023-02-27T14:28:17.589Z,5.80
2023-02-27T14:30:52.541Z,5.90
2023-02-27T14:33:39.236Z,5.90
2023-02-27T14:36:19.864Z,5.80
2023-02-27T14:38:55.404Z,5.80
2023-02-27T14:41:44.790Z,5.80
2023-02-27T14:44:22.579Z,5.90
2023-02-27T14:46:55.037Z,5.90
2023-02-27T14:49:28.911Z,5.90
2023-02-27T14:52:21.862Z,5.90
2023-02-27T14:54:50.069Z,5.90
2023-02-27T14:57:19.668Z,5.90
2023-02-27T14:59:56.136Z,5.90
2023-02-27T15:02:27.096Z,5.90
2023-02-27T15:05:16.563Z,6.00
2023-02-27T15:07:54.520Z,5.90
2023-02-27T15:10:30.748Z,5.80
2023-02-27T15:13:02.559Z,5.80
2023-02-27T15:15:34.361Z,5.80
2023-02-27T15:18:02.235Z,5.90
2023-02-27T15:20:39.290Z,5.90
2023-02-27T15:23:24.721Z,6.10
2023-02-27T15:25:56.979Z,6.10
2023-02-27T15:28:28.947Z,6.10
2023-02-27T15:30:58.669Z,6.00
2023-02-27T15:33:33.252Z,6.00
2023-02-27T15:36:02.450Z,6.00
2023-02-27T15:38:32.488Z,6.00
2023-02-27T15:41:01.789Z,6.00
2023-02-27T15:43:33.176Z,6.00
2023-02-27T15:46:04.960Z,6.00
2023-02-27T15:48:33.733Z,6.10
2023-02-27T15:51:04.618Z,6.10
2023-02-27T15:53:33.995Z,6.00
2023-02-27T15:56:15.122Z,5.90
2023-02-27T15:58:50.472Z,5.90
2023-02-27T16:01:26.034Z,6.00
2023-02-27T16:03:59.305Z,6.10
2023-02-27T16:06:32.994Z,6.20
2023-02-27T16:09:04.321Z,6.30
2023-02-27T16:11:34.333Z,6.30
2023-02-27T16:14:40.954Z,6.20
2023-02-27T16:17:28.749Z,6.00
2023-02-27T16:19:58.328Z,5.90
2023-02-27T16:22:27.233Z,5.90
2023-02-27T16:24:56.033Z,5.90
2023-02-27T16:27:28.930Z,5.80
2023-02-27T16:30:02.336Z,5.80
2023-02-27T16:32:39.947Z,5.90
2023-02-27T16:35:19.529Z,5.80
2023-02-27T16:37:51.512Z,5.80
2023-02-27T16:40:22.379Z,6.00
2023-02-27T16:42:53.635Z,6.20
2023-02-27T16:45:23.456Z,6.20
2023-02-27T16:48:01.387Z,6.10
2023-02-27T16:50:32.583Z,6.30
2023-02-27T16:53:00.676Z,6.20
2023-02-27T16:55:28.967Z,6.30
2023-02-27T16:57:59.872Z,6.20
2023-02-27T17:00:34.895Z,6.30
2023-02-27T17:03:04.543Z,6.30
2023-02-27T17:05:35.195Z,6.40
2023-02-27T17:08:03.295Z,6.40
2023-02-27T17:10:34.783Z,6.50
2023-02-27T17:13:08.086Z,6.50
2023-02-27T17:15:35.923Z,6.20
2023-02-27T17:18:05.246Z,6.00
2023-02-27T17:20:34.827Z,5.80
2023-02-27T17:23:02.719Z,5.60
2023-02-27T17:25:33.666Z,5.60
2023-02-27T17:28:05.646Z,5.60
2023-02-27T17:30:40.485Z,5.70
2023-02-27T17:33:20.264Z,5.60
2023-02-27T17:35:52.888Z,5.50
2023-02-27T17:38:22.550Z,5.50
2023-02-27T17:40:50.406Z,5.60
2023-02-27T17:43:18.281Z,5.60
2023-02-27T17:46:04.203Z,5.60
2023-02-27T17:48:41.924Z,5.60
2023-02-27T17:51:12.436Z,5.80
2023-02-27T17:53:44.047Z,5.90
2023-02-27T17:56:13.470Z,5.80
2023-02-27T17:58:41.557Z,5.80
2023-02-27T18:01:21.494Z,5.80
2023-02-27T18:03:54.278Z,5.80
2023-02-27T18:06:22.810Z,6.00
2023-02-27T18:08:51.012Z,6.00
2023-02-27T18:11:21.375Z,6.00
2023-02-27T18:13:55.184Z,6.10
2023-02-27T18:16:26.235Z,6.10
2023-02-27T18:18:58.334Z,6.40
2023-02-27T18:21:29.128Z,6.60
2023-02-27T18:23:56.997Z,6.80
2023-02-27T18:26:30.313Z,7.00
2023-02-27T18:29:02.581Z,6.90
2023-02-27T18:31:33.172Z,6.60
2023-02-27T18:34:05.907Z,6.70
2023-02-27T18:36:53.350Z,6.90
2023-02-27T18:39:22.791Z,7.10
2023-02-27T18:41:53.524Z,7.00
2023-02-27T18:44:21.400Z,6.80
2023-02-27T18:46:58.146Z,6.90
2023-02-27T18:49:27.418Z,6.90
2023-02-27T18:51:55.267Z,6.60
2023-02-27T18:54:23.123Z,6.60
2023-02-27T18:56:51.757Z,6.50
2023-02-27T18:59:34.910Z,6.40
2023-02-27T19:02:09.978Z,6.10
2023-02-27T19:04:39.211Z,6.10
2023-02-27T19:07:10.154Z,6.30
2023-02-27T19:09:38.014Z,6.30
2023-02-27T19:12:11.865Z,6.30
2023-02-27T19:14:39.823Z,6.10
2023-02-27T19:17:19.830Z,5.90
2023-02-27T19:19:49.223Z,5.80
2023-02-27T19:22:29.302Z,5.50
2023-02-27T19:24:57.568Z,5.40
2023-02-27T19:27:25.646Z,5.50
2023-02-27T19:29:56.697Z,5.40
2023-02-27T19:32:27.751Z,5.50
2023-02-27T19:35:06.719Z,5.80
2023-02-27T19:37:37.542Z,5.80
2023-02-27T19:40:05.790Z,5.80
2023-02-27T19:42:33.716Z,5.70
2023-02-27T19:45:01.552Z,5.80
2023-02-27T19:47:29.368Z,5.90
2023-02-27T19:50:04.993Z,5.80
2023-02-27T19:52:32.861Z,5.80
2023-02-27T19:55:03.634Z,5.80
2023-02-27T19:57:31.586Z,5.90
2023-02-27T20:00:06.759Z,6.30
2023-02-27T20:02:37.400Z,6.60
2023-02-27T20:05:14.213Z,6.60
2023-02-27T20:07:42.441Z,6.50
2023-02-27T20:10:19.906Z,6.40
2023-02-27T20:12:47.765Z,6.30
2023-02-27T20:15:29.516Z,6.40
2023-02-27T20:17:57.392Z,6.50
2023-02-27T20:20:26.762Z,6.30
2023-02-27T20:23:15.340Z,6.00
2023-02-27T20:25:43.181Z,5.80
2023-02-27T20:28:11.011Z,5.90
2023-02-27T20:30:40.386Z,6.20
2023-02-27T20:33:14.263Z,6.20
2023-02-27T20:35:52.188Z,6.20
2023-02-27T20:38:23.225Z,6.10
2023-02-27T20:40:51.304Z,5.90
2023-02-27T20:46:05.516Z,6.20
2023-02-27T20:48:36.684Z,6.30
2023-02-27T20:51:11.397Z,6.20
2023-02-27T20:53:40.539Z,6.10
2023-02-27T20:56:12.321Z,6.10
2023-02-27T20:58:40.598Z,6.40
2023-02-27T21:01:12.959Z,6.50
2023-02-27T21:03:46.410Z,6.30
2023-02-27T21:06:19.818Z,6.20
2023-02-27T21:08:49.478Z,6.10
2023-02-27T21:11:20.358Z,6.30
2023-02-27T21:13:49.893Z,6.50
2023-02-27T21:16:19.470Z,6.40
2023-02-27T21:18:57.422Z,6.10
2023-02-27T21:21:41.487Z,5.80
2023-02-27T21:24:09.595Z,5.60
2023-02-27T21:26:39.324Z,5.60
2023-02-27T21:29:09.317Z,5.60
2023-02-27T21:31:38.574Z,5.40
2023-02-27T21:34:12.508Z,5.20
2023-02-27T21:36:50.003Z,5.20
2023-02-27T21:39:25.333Z,5.30
2023-02-27T21:42:05.803Z,5.30
2023-02-27T21:44:33.702Z,5.20
2023-02-27T21:47:09.687Z,5.10
2023-02-27T21:49:39.114Z,5.20
2023-02-27T21:52:16.052Z,5.60
2023-02-27T21:54:47.068Z,6.20
2023-02-27T21:57:23.984Z,6.10
2023-02-27T21:59:51.805Z,5.90
2023-02-27T22:02:19.711Z,5.70
2023-02-27T22:04:50.536Z,5.90
2023-02-27T22:07:19.699Z,6.40
2023-02-27T22:09:49.784Z,6.30
2023-02-27T22:12:17.835Z,6.20
2023-02-27T22:14:49.105Z,5.90
2023-02-27T22:17:17.051Z,5.90
2023-02-27T22:19:48.481Z,5.90
2023-02-27T22:22:20.689Z,5.80
2023-02-27T22:24:53.345Z,5.50
2023-02-27T22:27:23.995Z,5.30
2023-02-27T22:29:51.906Z,5.30
2023-02-27T22:32:22.246Z,5.30
2023-02-27T22:34:53.180Z,5.20
2023-02-27T22:37:27.126Z,5.10
2023-02-27T22:39:57.486Z,5.10
2023-02-27T22:42:25.417Z,5.20
2023-02-27T22:45:05.617Z,5.20
2023-02-27T22:47:36.704Z,5.00
2023-02-27T22:50:10.201Z,5.00
2023-02-27T22:53:03.604Z,5.00
2023-02-27T22:55:34.268Z,5.00
2023-02-27T22:58:08.256Z,5.00
2023-02-27T23:00:36.113Z,5.10
2023-02-27T23:03:06.965Z,5.20
2023-02-27T23:05:52.880Z,5.00
2023-02-27T23:08:22.098Z,4.80
2023-02-27T23:10:52.996Z,4.90
2023-02-27T23:13:31.958Z,5.00
2023-02-27T23:16:03.425Z,4.80
2023-02-27T23:18:34.408Z,4.90
2023-02-27T23:21:06.529Z,4.90
2023-02-27T23:23:38.572Z,5.00
2023-02-27T23:26:07.454Z,4.80
2023-02-27T23:28:38.900Z,4.70
2023-02-27T23:31:08.465Z,5.00
2023-02-27T23:33:37.026Z,5.00
2023-02-27T23:36:08.599Z,4.90
2023-02-27T23:38:48.940Z,4.80
2023-02-27T23:41:20.796Z,4.70
2023-02-27T23:43:52.509Z,4.80
2023-02-27T23:46:20.745Z,4.80
2023-02-27T23:48:51.286Z,4.70
2023-02-27T23:51:19.163Z,4.70
2023-02-27T23:53:59.830Z,4.80
2023-02-27T23:56:31.856Z,4.60
2023-02-27T23:59:01.876Z,4.50
